Briefing drone pour Saint-julien-en-genevois

Rechercher une autre localisation

Conditions de vol :


Nous sommes le : Samedi 21 mai 2022
Il est 21:33 UTC (23:33 LT)

Lever de soleil : 03:30 UTC (05:30 LT)
Coucher de soleil : 19:34 UTC (21:34 LT)

Météo

L'essentiel des conditions de vol

VIGILANCE MÉTÉO FRANCE - Haute-Savoie (74)
Pas de vigilances particulieres
METAR de LFLP
LFLP 212130Z AUTO 02006KT CAVOK 20/13 Q1018

Date d'émission: 21/05/2022
Heure d'émission: 21:30 UTC
Vent: 020° pour 6 KT (11 km/h)
Visibilité horizontale: > 10 km
Plafond : Plafond et visibilité OK (CAVOK)
Température: 20 °C
Point de rosée: 13 °C
Humidité: 64%
Pression (QNH): 1018 hPa
TAF de LFLP
AMD LFLP 211900Z 2119/2215 CNL

Conditions prévues :

Heure d'émission : Bulletin éffectué le 21 à 19:00 UTC
Prévision : Valide du 21 a 19:00 UTC au 22 a 15:00 UTC
Nuages : à 0ft (0 m)
WEBCAM POUR SAINT-JULIEN-EN-GENEVOIS

Réglementation

Voler en sécurité

CARTES AERONAUTIQUE 1/500.000
CARTES VAC (LFLP)
SUP AIP




Chargement des AIP...
NOTAM (SAINT-JULIEN-EN-GENEVOIS + Terrain à proximité / FIR )




Chargement des NOTAMS...
CONTACT PREFECTURE 74


Avertissement : Les données mises à disposition sont indicatives. Oxygène Drone ne pourra être tenu responsable de dégâts causés aux biens et aux personnes.